Time;durP1;ratioP1;P1;durP2;ratioP2;P2;SDS_P1;SDS_P2;PMS_P1;PMS_P2;Temp;Humidity;BMP_temperature;BMP_pressure;BME280_temperature;BME280_humidity;BME280_pressure;Samples;Min_cycle;Max_cycle;Signal;HPM_P1;HPM_P2
2022/05/27 00:02:01;;;;;;;16.42;2.75;;;;;;;9.18;74.91;99495.00;5102966;28;20028;-64
2022/05/27 00:04:28;;;;;;;14.07;3.03;;;;;;;9.16;75.03;99495.94;5103492;28;20099;-65
2022/05/27 00:06:53;;;;;;;10.27;2.65;;;;;;;9.17;74.69;99500.22;5103210;28;20028;-64
2022/05/27 00:09:19;;;;;;;24.17;3.70;;;;;;;9.12;74.95;99478.75;5103131;28;20108;-64
2022/05/27 00:11:44;;;;;;;21.40;4.25;;;;;;;9.12;74.95;99482.16;5103241;28;20100;-65
2022/05/27 00:14:09;;;;;;;10.23;2.80;;;;;;;9.07;74.72;99471.06;5102848;28;20028;-66
2022/05/27 00:16:35;;;;;;;21.42;3.28;;;;;;;9.08;74.94;99472.75;5102442;28;20031;-65
2022/05/27 00:19:00;;;;;;;18.10;2.70;;;;;;;9.04;74.94;99465.94;5102700;28;20034;-65
2022/05/27 00:21:27;;;;;;;12.05;3.30;;;;;;;9.00;75.34;99464.25;5102600;28;20034;-65
2022/05/27 00:23:52;;;;;;;13.40;2.60;;;;;;;8.97;75.44;99469.50;5084524;28;20023;-65
2022/05/27 00:26:17;;;;;;;14.70;2.75;;;;;;;8.95;75.73;99463.47;5102863;28;20020;-65
2022/05/27 00:28:43;;;;;;;14.15;2.55;;;;;;;8.96;75.99;99450.50;5102680;28;20126;-65
2022/05/27 00:31:09;;;;;;;10.90;2.83;;;;;;;9.00;75.83;99451.31;5102462;28;20036;-65
2022/05/27 00:33:37;;;;;;;12.65;2.38;;;;;;;9.02;75.83;99445.25;5102692;28;20020;-65
2022/05/27 00:36:08;;;;;;;15.38;2.85;;;;;;;9.09;75.74;99439.97;5103972;28;20038;-65
2022/05/27 00:38:34;;;;;;;16.00;3.20;;;;;;;9.12;75.72;99440.75;5106675;28;20038;-66
2022/05/27 00:40:59;;;;;;;12.77;2.97;;;;;;;9.11;75.67;99425.22;5106546;28;20308;-65
2022/05/27 00:43:24;;;;;;;10.95;2.60;;;;;;;9.12;75.78;99427.78;5106404;28;20028;-67
2022/05/27 00:46:04;;;;;;;11.20;2.55;;;;;;;9.12;75.97;99421.78;5106426;28;20028;-66
2022/05/27 00:48:32;;;;;;;15.10;2.85;;;;;;;9.13;76.01;99415.72;5088167;28;20020;-65
2022/05/27 00:50:59;;;;;;;10.88;2.42;;;;;;;9.14;75.71;99407.06;5105843;28;20119;-65
2022/05/27 00:53:33;;;;;;;19.17;2.72;;;;;;;9.13;76.24;99401.03;5105846;28;20102;-65
2022/05/27 00:56:02;;;;;;;15.45;3.45;;;;;;;9.17;76.17;99402.69;5087674;28;20024;-66
2022/05/27 00:58:32;;;;;;;9.65;2.88;;;;;;;9.16;76.56;99388.03;5106113;28;20050;-66
2022/05/27 01:00:59;;;;;;;13.95;2.65;;;;;;;9.18;76.55;99377.66;5105863;28;20509;-65
2022/05/27 01:03:27;;;;;;;12.98;3.30;;;;;;;9.20;76.93;99375.03;5105716;28;20057;-65
2022/05/27 01:05:53;;;;;;;16.92;3.38;;;;;;;9.23;76.97;99375.81;5105959;28;20068;-65
2022/05/27 01:08:22;;;;;;;13.43;2.78;;;;;;;9.30;77.03;99373.94;5105853;28;20090;-66
2022/05/27 01:11:06;;;;;;;11.15;2.50;;;;;;;9.36;77.42;99370.41;5105987;28;20165;-65
2022/05/27 01:13:42;;;;;;;6.88;2.30;;;;;;;9.38;77.55;99369.47;5105852;28;20028;-65
2022/05/27 01:16:15;;;;;;;10.10;2.30;;;;;;;9.46;77.67;99360.69;5105428;28;20032;-64
2022/05/27 01:22:05;;;;;;;16.50;3.08;;;;;;;9.58;77.67;99347.50;5105570;28;20093;-64
2022/05/27 01:24:53;;;;;;;11.60;2.63;;;;;;;9.61;77.86;99350.00;5105535;28;20020;-64
2022/05/27 01:27:56;;;;;;;18.10;3.63;;;;;;;9.65;78.10;99351.63;5105499;28;20055;-64
2022/05/27 01:30:27;;;;;;;12.07;3.80;;;;;;;9.67;78.20;99344.69;5105391;28;20123;-64
2022/05/27 01:33:14;;;;;;;18.02;2.58;;;;;;;9.73;78.18;99337.69;5105247;28;20020;-66
2022/05/27 01:35:43;;;;;;;13.02;1.83;;;;;;;9.77;78.06;99339.31;5105430;28;20112;-64
2022/05/27 01:38:17;;;;;;;12.07;2.25;;;;;;;9.80;78.17;99339.22;5105305;28;20020;-64
2022/05/27 01:41:00;;;;;;;11.13;2.10;;;;;;;9.85;77.85;99332.22;5105184;28;20028;-64
2022/05/27 01:43:50;;;;;;;12.52;2.60;;;;;;;9.87;77.99;99330.41;5105318;28;20035;-66
2022/05/27 01:46:22;;;;;;;21.38;3.00;;;;;;;9.88;77.92;99319.19;5104804;28;20099;-64
2022/05/27 01:48:56;;;;;;;10.63;2.88;;;;;;;9.97;77.89;99322.44;5105191;28;20047;-65
2022/05/27 01:51:29;;;;;;;13.98;2.35;;;;;;;9.98;77.94;99314.63;5105071;28;20314;-64
2022/05/27 01:53:56;;;;;;;6.28;2.95;;;;;;;9.97;78.16;99309.50;5105035;28;20051;-65
2022/05/27 01:56:37;;;;;;;11.70;3.13;;;;;;;9.96;78.28;99303.44;5086609;28;20391;-65
2022/05/27 01:59:08;;;;;;;11.43;2.58;;;;;;;9.94;78.20;99300.03;5104893;28;20020;-66
2022/05/27 02:01:38;;;;;;;14.05;3.80;;;;;;;9.95;78.40;99295.69;5104543;28;20050;-65
2022/05/27 02:05:02;;;;;;;7.10;2.10;;;;;;;9.88;78.67;99301.03;5104885;28;20039;-66
2022/05/27 02:07:43;;;;;;;11.38;3.13;;;;;;;9.87;78.72;99294.13;5081577;28;20029;-65
2022/05/27 02:10:27;;;;;;;19.63;3.97;;;;;;;9.83;79.04;99297.69;5081786;28;20111;-66
2022/05/27 02:13:14;;;;;;;14.02;2.67;;;;;;;9.78;79.38;99296.94;5081660;28;20036;-65
2022/05/27 02:15:45;;;;;;;13.30;2.65;;;;;;;9.72;79.74;99286.72;5081939;28;20035;-66
2022/05/27 02:18:21;;;;;;;15.73;2.70;;;;;;;9.66;80.48;99290.31;5081537;28;20032;-66
2022/05/27 02:20:54;;;;;;;7.70;3.38;;;;;;;9.61;80.80;99284.38;5081729;28;20084;-64
2022/05/27 02:23:42;;;;;;;9.18;3.17;;;;;;;9.61;80.78;99281.78;5081590;28;20028;-64
2022/05/27 02:26:21;;;;;;;8.65;2.40;;;;;;;9.60;81.03;99283.50;5081839;28;20043;-65
2022/05/27 02:28:52;;;;;;;7.03;2.50;;;;;;;9.61;81.33;99282.63;5081574;28;20093;-65
2022/05/27 02:31:25;;;;;;;9.98;3.03;;;;;;;9.60;81.37;99269.72;5081379;28;20048;-65
2022/05/27 02:36:46;;;;;;;;;;;;;;;9.66;81.44;99266.97;5081927;28;20113;-64
2022/05/27 02:39:12;;;;;;;9.60;2.00;;;;;;;9.60;81.49;99274.91;5101913;28;19908;-65
2022/05/27 02:42:01;;;;;;;28.60;2.42;;;;;;;9.60;81.68;99278.31;5104233;28;20024;-64
2022/05/27 02:44:35;;;;;;;9.27;1.92;;;;;;;9.61;81.72;99271.41;5089215;28;20040;-66
2022/05/27 02:47:26;;;;;;;4.72;1.58;;;;;;;9.60;82.08;99265.38;5104075;28;20027;-64
2022/05/27 02:50:28;;;;;;;4.97;1.67;;;;;;;9.59;82.44;99263.69;5103884;28;20044;-66
2022/05/27 02:53:10;;;;;;;9.88;2.00;;;;;;;9.58;82.38;99263.72;5085888;28;20438;-65
2022/05/27 02:55:54;;;;;;;10.98;2.40;;;;;;;9.59;82.05;99265.41;5104233;28;20124;-65
2022/05/27 02:58:19;;;;;;;6.18;1.70;;;;;;;9.59;81.58;99258.50;5103512;28;20039;-64
2022/05/27 03:00:46;;;;;;;8.70;1.92;;;;;;;9.55;81.20;99255.09;5104190;28;20244;-65
2022/05/27 03:03:11;;;;;;;11.60;2.42;;;;;;;9.52;80.66;99242.22;5103692;28;20073;-64
2022/05/27 03:06:14;;;;;;;9.88;1.88;;;;;;;9.53;80.40;99249.13;5104116;28;20099;-65
2022/05/27 03:08:48;;;;;;;11.32;2.08;;;;;;;9.54;79.92;99255.16;5103663;28;20380;-64
2022/05/27 03:11:26;;;;;;;9.88;2.25;;;;;;;9.57;79.80;99257.66;5103885;28;20028;-64
2022/05/27 03:14:12;;;;;;;8.82;2.15;;;;;;;9.61;79.42;99259.31;5103937;28;20352;-64
2022/05/27 03:17:14;;;;;;;9.95;1.60;;;;;;;9.60;78.91;99255.00;5051783;28;20085;-66
2022/05/27 03:20:07;;;;;;;10.40;2.13;;;;;;;9.60;78.38;99249.00;5103763;28;20038;-66
2022/05/27 03:22:35;;;;;;;11.80;2.35;;;;;;;9.63;78.13;99254.94;5103774;28;20031;-65
2022/05/27 03:25:18;;;;;;;10.82;1.80;;;;;;;9.64;77.79;99256.66;5103619;28;20030;-66
2022/05/27 03:28:08;;;;;;;11.95;2.10;;;;;;;9.67;77.47;99246.22;5103444;28;20028;-65
2022/05/27 03:30:55;;;;;;;9.32;2.20;;;;;;;9.67;77.06;99250.53;5103795;28;20084;-65
2022/05/27 03:33:47;;;;;;;6.85;2.20;;;;;;;9.70;77.04;99254.78;5103278;28;20043;-65
2022/05/27 03:36:19;;;;;;;13.15;1.98;;;;;;;9.76;76.86;99246.91;5103618;28;20100;-66
2022/05/27 03:38:50;;;;;;;16.23;2.50;;;;;;;9.81;76.88;99239.00;5103512;28;20030;-65
2022/05/27 03:41:24;;;;;;;12.03;2.77;;;;;;;9.87;76.56;99236.25;5103530;28;20495;-65
2022/05/27 03:43:50;;;;;;;7.30;1.85;;;;;;;9.86;76.55;99235.41;5103500;28;20099;-65
2022/05/27 03:46:36;;;;;;;16.63;3.10;;;;;;;9.84;76.51;99241.53;5103177;28;20021;-66
2022/05/27 03:49:04;;;;;;;12.05;2.88;;;;;;;9.89;76.42;99230.13;5103176;28;20035;-65
2022/05/27 03:51:37;;;;;;;6.50;1.63;;;;;;;9.86;76.26;99239.72;5103359;28;20020;-66
2022/05/27 03:54:06;;;;;;;6.80;1.73;;;;;;;9.89;75.94;99243.09;5103393;28;20065;-65
2022/05/27 03:56:42;;;;;;;6.72;1.48;;;;;;;9.85;76.02;99244.06;5103394;28;20491;-67
2022/05/27 03:59:10;;;;;;;7.07;1.40;;;;;;;9.85;76.03;99245.81;5103360;28;20024;-65
2022/05/27 04:01:38;;;;;;;4.95;1.42;;;;;;;9.84;76.08;99241.53;5103123;28;20020;-65
2022/05/27 04:04:06;;;;;;;8.75;1.95;;;;;;;9.87;75.93;99247.47;5103354;28;20028;-65
2022/05/27 04:06:31;;;;;;;11.70;1.77;;;;;;;9.85;76.17;99254.44;5103091;28;20050;-65
2022/05/27 04:08:57;;;;;;;7.78;1.67;;;;;;;9.89;76.31;99258.66;5103070;28;20048;-65
2022/05/27 04:11:24;;;;;;;5.32;1.75;;;;;;;9.95;76.16;99254.22;5104934;28;20031;-65
2022/05/27 04:13:49;;;;;;;6.35;1.73;;;;;;;9.98;76.46;99256.72;5106879;28;20028;-65
2022/05/27 04:16:15;;;;;;;8.60;1.42;;;;;;;10.04;76.07;99265.22;5106916;28;20024;-65
2022/05/27 04:18:41;;;;;;;4.25;1.40;;;;;;;10.10;76.28;99252.97;5106927;28;20072;-65
2022/05/27 04:21:06;;;;;;;6.15;1.60;;;;;;;10.25;76.08;99265.56;5106933;28;20036;-66
2022/05/27 04:23:31;;;;;;;5.10;1.40;;;;;;;10.40;74.83;99282.47;5106734;28;20024;-65
2022/05/27 04:25:57;;;;;;;7.72;1.73;;;;;;;10.34;74.84;99277.44;5106808;28;20047;-65
2022/05/27 04:28:22;;;;;;;9.07;1.50;;;;;;;10.26;74.23;99279.38;5106617;28;20028;-66
2022/05/27 04:30:48;;;;;;;7.88;1.95;;;;;;;10.23;74.01;99279.44;5106530;28;20099;-65
2022/05/27 04:33:13;;;;;;;9.98;1.98;;;;;;;10.10;73.83;99276.31;5106226;28;20028;-66
2022/05/27 04:35:39;;;;;;;8.27;2.30;;;;;;;9.96;74.19;99290.47;5106683;28;20027;-66
2022/05/27 04:38:05;;;;;;;8.18;1.90;;;;;;;9.82;74.30;99284.75;5106478;28;20099;-66
2022/05/27 04:40:30;;;;;;;9.68;2.17;;;;;;;9.72;74.39;99299.66;5106444;28;20028;-65
2022/05/27 04:42:56;;;;;;;13.63;1.80;;;;;;;9.71;73.40;99304.03;5106353;28;20024;-66
2022/05/27 04:45:22;;;;;;;8.20;2.00;;;;;;;9.54;73.97;99294.00;5106365;28;20020;-65
2022/05/27 04:47:47;;;;;;;11.70;2.80;;;;;;;9.34;74.72;99305.69;5106223;28;20028;-65
2022/05/27 04:50:14;;;;;;;15.18;2.33;;;;;;;9.23;75.14;99299.88;5106159;28;20044;-65
2022/05/27 04:52:40;;;;;;;13.20;2.95;;;;;;;9.26;75.24;99304.97;5106207;28;20457;-64
2022/05/27 04:55:08;;;;;;;8.77;1.63;;;;;;;9.20;75.37;99299.94;5106269;28;20107;-65
2022/05/27 04:57:38;;;;;;;11.70;2.17;;;;;;;9.22;75.64;99309.34;5106260;28;20026;-64
2022/05/27 05:00:10;;;;;;;11.38;3.15;;;;;;;9.25;75.82;99303.28;5106274;28;20098;-66
2022/05/27 05:02:35;;;;;;;9.43;2.33;;;;;;;9.32;75.70;99310.03;5105852;28;20399;-64
2022/05/27 05:05:01;;;;;;;10.27;1.98;;;;;;;9.44;75.38;99305.47;5106220;28;20555;-64
2022/05/27 05:07:26;;;;;;;7.85;2.00;;;;;;;9.52;75.35;99308.75;5105900;28;20020;-64
2022/05/27 05:09:51;;;;;;;7.18;1.63;;;;;;;9.59;74.85;99306.84;5106027;28;20032;-64
2022/05/27 05:12:22;;;;;;;7.28;1.52;;;;;;;9.75;74.55;99315.16;5106041;28;20031;-64
2022/05/27 05:14:49;;;;;;;5.72;1.23;;;;;;;10.07;73.71;99295.41;5106134;28;20023;-64
2022/05/27 05:17:14;;;;;;;7.43;1.52;;;;;;;10.62;73.32;99310.47;5105665;28;20021;-64
2022/05/27 05:19:39;;;;;;;7.40;1.50;;;;;;;11.29;72.39;99297.44;5106000;28;20023;-65
2022/05/27 05:22:05;;;;;;;3.28;1.67;;;;;;;11.71;69.14;99297.94;5105404;28;20020;-64
2022/05/27 05:24:30;;;;;;;3.85;1.85;;;;;;;11.81;67.59;99304.53;5105783;28;20488;-64
2022/05/27 05:26:56;;;;;;;6.30;1.98;;;;;;;12.18;66.77;99306.88;5105630;28;20092;-64
2022/05/27 05:29:21;;;;;;;5.97;1.50;;;;;;;12.46;66.92;99300.75;5105564;28;20027;-65
2022/05/27 05:31:46;;;;;;;5.07;1.20;;;;;;;12.72;66.14;99283.38;5105377;28;20032;-64
2022/05/27 05:34:12;;;;;;;4.95;1.30;;;;;;;13.19;64.10;99297.34;5105611;28;20058;-65
2022/05/27 05:36:37;;;;;;;7.03;1.42;;;;;;;13.69;63.43;99295.50;5105342;28;20423;-65
2022/05/27 05:39:04;;;;;;;10.40;1.65;;;;;;;13.86;62.29;99290.47;5105622;28;20024;-64
2022/05/27 05:41:36;;;;;;;7.50;1.50;;;;;;;14.03;60.92;99277.63;5105369;28;20031;-64
2022/05/27 05:44:04;;;;;;;7.55;1.48;;;;;;;14.08;59.52;99267.84;5105718;28;20024;-65
2022/05/27 05:46:32;;;;;;;6.32;1.63;;;;;;;13.77;57.51;99280.38;5104979;28;20024;-64
2022/05/27 05:48:57;;;;;;;8.10;1.75;;;;;;;13.53;57.59;99279.59;5105026;28;20027;-65
2022/05/27 05:51:22;;;;;;;4.07;1.33;;;;;;;13.37;59.13;99269.75;5104898;28;20044;-65
2022/05/27 05:53:48;;;;;;;11.05;1.63;;;;;;;13.71;58.25;99285.84;5105203;28;20047;-65
2022/05/27 05:56:13;;;;;;;8.85;2.13;;;;;;;14.10;58.62;99274.72;5105341;28;20043;-65
2022/05/27 05:58:39;;;;;;;5.28;1.42;;;;;;;14.63;56.67;99276.88;5105266;28;20031;-65
2022/05/27 06:01:04;;;;;;;7.93;1.88;;;;;;;14.95;56.76;99279.00;5105247;28;20023;-65
2022/05/27 06:03:30;;;;;;;7.63;1.55;;;;;;;15.22;56.81;99281.28;5104714;28;20027;-65
2022/05/27 06:05:55;;;;;;;10.10;1.70;;;;;;;15.01;55.07;99289.19;5105007;28;20053;-64
2022/05/27 06:08:21;;;;;;;7.63;1.73;;;;;;;14.55;53.92;99290.28;5104954;28;20027;-63
2022/05/27 06:10:47;;;;;;;7.18;1.50;;;;;;;13.90;55.73;99278.13;5104819;28;20043;-64
2022/05/27 06:13:13;;;;;;;6.80;1.40;;;;;;;13.61;55.82;99295.81;5104634;28;20561;-64
2022/05/27 06:15:39;;;;;;;7.90;1.65;;;;;;;13.25;56.01;99287.53;5104710;28;20035;-64
2022/05/27 06:18:06;;;;;;;5.57;1.63;;;;;;;12.87;56.12;99288.06;5104271;28;20099;-65
2022/05/27 06:20:32;;;;;;;8.43;1.85;;;;;;;12.40;56.70;99275.78;5104572;28;20118;-64
2022/05/27 06:22:58;;;;;;;9.80;1.58;;;;;;;12.51;58.05;99288.41;5086082;28;20050;-65
2022/05/27 06:25:24;;;;;;;5.63;1.30;;;;;;;13.12;57.35;99294.09;5104526;28;20028;-64
2022/05/27 06:27:50;;;;;;;6.90;1.80;;;;;;;13.75;55.63;99293.47;5104544;28;20016;-64
2022/05/27 06:35:57;;;;;;;8.98;2.50;;;;;;;15.24;53.03;99300.34;5021354;28;20113;-65
2022/05/27 06:38:23;;;;;;;8.00;1.50;;;;;;;15.02;51.12;99296.09;5021288;28;20026;-65
2022/05/27 06:40:49;;;;;;;8.45;1.67;;;;;;;14.55;52.77;99297.25;5021306;28;20035;-65
2022/05/27 06:43:14;;;;;;;8.18;1.48;;;;;;;14.30;52.91;99293.91;5021462;28;20085;-65
2022/05/27 06:45:39;;;;;;;6.03;1.20;;;;;;;14.02;52.31;99302.03;5021084;28;20596;-65
2022/05/27 06:48:06;;;;;;;7.35;2.15;;;;;;;13.61;53.21;99307.06;5020961;28;20022;-64
2022/05/27 06:50:33;;;;;;;11.65;1.88;;;;;;;13.49;54.47;99303.16;5020948;28;20058;-65
2022/05/27 06:52:58;;;;;;;2.95;1.00;;;;;;;13.76;53.58;99294.34;5020742;28;20053;-65
2022/05/27 06:55:24;;;;;;;2.35;1.02;;;;;;;13.86;51.86;99294.81;5020894;28;20049;-65
2022/05/27 06:57:49;;;;;;;3.83;1.38;;;;;;;13.99;53.20;99300.41;5020653;28;20506;-65
2022/05/27 07:00:15;;;;;;;7.43;1.63;;;;;;;14.60;53.21;99293.50;5020992;28;20032;-65
2022/05/27 07:02:40;;;;;;;3.78;1.35;;;;;;;15.41;51.14;99290.88;5020711;28;20268;-65
2022/05/27 07:05:06;;;;;;;7.18;1.42;;;;;;;15.81;50.42;99301.22;5020974;28;20056;-65
2022/05/27 07:07:32;;;;;;;11.82;2.35;;;;;;;15.85;49.38;99308.84;5020957;28;20025;-65
2022/05/27 07:09:57;;;;;;;8.85;1.48;;;;;;;15.48;48.88;99308.84;5020688;28;20442;-65
2022/05/27 07:12:23;;;;;;;6.45;1.92;;;;;;;15.16;49.15;99318.16;5090627;28;20040;-65
2022/05/27 07:14:48;;;;;;;7.85;1.58;;;;;;;15.39;50.11;99318.88;5103591;28;20023;-65
2022/05/27 07:17:13;;;;;;;7.53;1.70;;;;;;;16.06;49.17;99321.00;5085200;28;20031;-65
2022/05/27 07:19:40;;;;;;;5.18;1.30;;;;;;;16.64;46.55;99303.31;5103629;28;20041;-65
2022/05/27 07:22:10;;;;;;;7.53;1.35;;;;;;;16.87;44.94;99306.47;5103338;28;20028;-64
2022/05/27 07:24:37;;;;;;;8.35;2.05;;;;;;;17.30;43.89;99311.25;5103350;28;20085;-65
2022/05/27 07:27:03;;;;;;;8.23;1.40;;;;;;;17.36;43.31;99310.06;5103316;28;20016;-65
2022/05/27 07:29:28;;;;;;;9.85;1.77;;;;;;;16.80;43.39;99326.94;5103243;28;20031;-65
2022/05/27 07:31:54;;;;;;;5.85;1.30;;;;;;;16.56;43.92;99308.09;5103164;28;20027;-65
2022/05/27 07:34:19;;;;;;;5.10;1.23;;;;;;;16.72;43.86;99311.59;5103260;28;20020;-65
2022/05/27 07:36:45;;;;;;;4.32;1.08;;;;;;;16.79;44.23;99317.38;5103395;28;20055;-64
2022/05/27 07:39:10;;;;;;;5.32;1.63;;;;;;;16.36;44.10;99325.66;5103593;28;20016;-65
2022/05/27 07:41:36;;;;;;;6.07;1.52;;;;;;;15.93;45.33;99325.94;5103181;28;20024;-65
2022/05/27 07:44:03;;;;;;;5.90;1.15;;;;;;;15.99;45.53;99315.22;5103087;28;20093;-65
2022/05/27 07:46:33;;;;;;;4.70;1.05;;;;;;;16.28;45.29;99312.09;5102801;28;20050;-65
2022/05/27 07:48:59;;;;;;;3.30;1.30;;;;;;;16.51;44.63;99310.94;5103007;28;20019;-66
2022/05/27 07:51:25;;;;;;;4.03;1.30;;;;;;;16.74;43.17;99319.41;5103087;28;20036;-65
2022/05/27 07:53:50;;;;;;;1.65;0.52;;;;;;;16.87;42.28;99313.50;5084673;28;20091;-64
2022/05/27 07:56:15;;;;;;;1.60;0.73;;;;;;;16.71;41.80;99307.28;5103335;28;20050;-65
2022/05/27 07:58:41;;;;;;;9.65;1.45;;;;;;;16.43;42.36;99331.44;5103074;28;20044;-65
2022/05/27 08:01:08;;;;;;;6.15;1.42;;;;;;;15.95;43.61;99326.72;5102998;28;20205;-65
2022/05/27 08:03:33;;;;;;;9.48;1.58;;;;;;;15.86;44.40;99330.66;5102448;28;20087;-65
2022/05/27 08:05:59;;;;;;;5.57;1.00;;;;;;;15.79;44.44;99334.47;5102925;28;20030;-65
2022/05/27 08:08:25;;;;;;;8.23;1.40;;;;;;;15.43;44.77;99325.66;5102795;28;20024;-66
2022/05/27 08:10:51;;;;;;;3.67;0.85;;;;;;;15.42;45.37;99316.09;5103070;28;20038;-64
2022/05/27 08:13:17;;;;;;;3.40;1.00;;;;;;;15.64;45.06;99312.50;5103073;28;20106;-64
2022/05/27 08:15:43;;;;;;;3.75;1.23;;;;;;;15.98;44.35;99324.84;5103183;28;20024;-65
2022/05/27 08:18:09;;;;;;;6.18;1.25;;;;;;;16.55;42.91;99328.19;5102928;28;20062;-65
2022/05/27 08:20:36;;;;;;;8.68;1.50;;;;;;;16.87;42.83;99329.25;5102961;28;20017;-65
2022/05/27 08:23:02;;;;;;;8.15;1.50;;;;;;;16.74;42.32;99329.88;5102419;28;20028;-65
2022/05/27 08:25:29;;;;;;;10.45;1.27;;;;;;;16.81;42.23;99328.63;5102503;28;20510;-65
2022/05/27 08:27:55;;;;;;;5.40;1.48;;;;;;;17.27;41.37;99326.31;5102564;28;20027;-65
2022/05/27 08:30:25;;;;;;;7.18;1.17;;;;;;;17.79;39.14;99324.38;5103296;28;20016;-65
2022/05/27 08:32:50;;;;;;;5.00;1.42;;;;;;;18.07;38.70;99326.28;5102799;28;20024;-66
2022/05/27 08:38:05;;;;;;;4.43;1.10;;;;;;;18.05;39.29;99329.94;5103102;28;20591;-66
2022/05/27 08:40:52;;;;;;;4.85;1.27;;;;;;;18.54;38.87;99313.13;5103010;28;20152;-66
2022/05/27 08:43:45;;;;;;;5.63;1.30;;;;;;;18.80;37.87;99320.38;5102971;28;20558;-67
2022/05/27 08:46:21;;;;;;;9.15;2.03;;;;;;;18.32;38.68;99343.25;5103226;28;20016;-66
2022/05/27 08:48:49;;;;;;;7.78;1.55;;;;;;;17.83;39.99;99339.84;5102964;28;20031;-66
2022/05/27 08:51:34;;;;;;;7.40;1.50;;;;;;;18.00;40.38;99339.84;5102776;28;20119;-65
2022/05/27 08:54:13;;;;;;;3.92;1.30;;;;;;;18.32;39.72;99332.75;5103005;28;20721;-65
2022/05/27 08:59:52;;;;;;;4.47;1.33;;;;;;;18.16;39.81;99329.34;5107001;28;20415;-66
2022/05/27 09:02:31;;;;;;;4.50;1.02;;;;;;;18.70;38.53;99333.22;5106355;28;20038;-65
2022/05/27 09:05:14;;;;;;;5.20;0.98;;;;;;;19.23;36.95;99327.47;5106461;28;20028;-65
2022/05/27 09:07:58;;;;;;;6.45;1.00;;;;;;;19.34;36.04;99331.19;5106400;28;20049;-64
2022/05/27 09:10:48;;;;;;;9.95;1.55;;;;;;;19.05;36.64;99325.00;5106309;28;20041;-66
2022/05/27 09:13:13;;;;;;;5.90;1.10;;;;;;;18.58;37.62;99340.91;5105997;28;20032;-64
2022/05/27 09:16:04;;;;;;;7.53;1.35;;;;;;;18.11;38.43;99339.22;5106326;28;20085;-67
2022/05/27 09:18:45;;;;;;;8.60;1.45;;;;;;;17.57;40.16;99336.91;5106188;28;20051;-66
2022/05/27 09:21:20;;;;;;;8.43;1.52;;;;;;;17.00;40.83;99335.53;5106244;28;20025;-64
2022/05/27 09:24:07;;;;;;;11.40;3.10;;;;;;;16.21;41.94;99348.22;5106139;28;20028;-66
2022/05/27 09:26:40;;;;;;;5.72;1.20;;;;;;;15.88;42.59;99333.19;5106125;28;20232;-65
2022/05/27 09:29:55;;;;;;;11.15;1.45;;;;;;;16.23;43.83;99338.50;5106065;28;20020;-64
2022/05/27 09:32:44;;;;;;;9.43;1.42;;;;;;;16.87;41.78;99332.69;5003264;28;20041;-66
2022/05/27 09:35:15;;;;;;;7.55;1.27;;;;;;;16.70;41.45;99326.56;5003714;28;20034;-65
2022/05/27 09:37:48;;;;;;;5.05;1.15;;;;;;;16.67;41.58;99325.88;5003409;28;20107;-65
2022/05/27 09:40:28;;;;;;;6.93;1.30;;;;;;;17.45;40.76;99327.06;5003286;28;20022;-66
2022/05/27 09:43:09;;;;;;;5.43;1.30;;;;;;;18.05;40.54;99327.31;5003362;28;20038;-65
2022/05/27 09:45:35;;;;;;;6.30;1.15;;;;;;;18.60;39.57;99326.81;5003449;28;20022;-65
2022/05/27 09:48:06;;;;;;;5.70;1.50;;;;;;;18.90;38.26;99339.91;5003038;28;20071;-65
2022/05/27 09:50:40;;;;;;;5.75;1.55;;;;;;;18.77;38.38;99336.34;5002873;28;20038;-65
2022/05/27 09:53:07;;;;;;;5.43;1.40;;;;;;;18.45;38.25;99353.09;5003071;28;20049;-65
2022/05/27 09:55:48;;;;;;;7.97;1.67;;;;;;;17.91;38.90;99343.81;5003213;28;20034;-66
2022/05/27 09:58:21;;;;;;;6.95;1.30;;;;;;;17.64;39.60;99340.03;5002943;28;20089;-66
2022/05/27 10:00:49;;;;;;;5.25;1.38;;;;;;;17.42;39.80;99327.25;5002986;28;20093;-65
2022/05/27 10:03:39;;;;;;;4.35;0.98;;;;;;;17.55;40.17;99341.41;5067224;28;20105;-65
2022/05/27 10:06:07;;;;;;;4.85;1.20;;;;;;;18.06;40.04;99339.50;5105349;28;20061;-66
2022/05/27 10:08:43;;;;;;;5.50;1.38;;;;;;;18.09;38.35;99342.81;5105213;28;20020;-65
2022/05/27 10:11:22;;;;;;;4.90;1.30;;;;;;;17.57;39.48;99350.00;5105329;28;20027;-66
2022/05/27 10:13:49;;;;;;;4.00;1.10;;;;;;;17.82;39.42;99350.44;5105224;28;20472;-66
2022/05/27 10:16:24;;;;;;;5.07;1.20;;;;;;;18.27;39.09;99344.47;5105231;28;20028;-65
2022/05/27 10:19:13;;;;;;;6.90;1.65;;;;;;;18.27;39.31;99347.97;5105024;28;20024;-66
2022/05/27 10:22:19;;;;;;;13.88;1.42;;;;;;;17.76;39.68;99356.03;5105091;28;20020;-65
2022/05/27 10:24:45;;;;;;;5.47;1.10;;;;;;;17.24;39.86;99345.66;5091279;28;20040;-66
2022/05/27 10:27:16;;;;;;;5.25;1.30;;;;;;;16.58;40.50;99335.88;5104771;28;20031;-65
2022/05/27 10:29:56;;;;;;;3.78;1.20;;;;;;;16.10;41.19;99353.97;5104956;28;20032;-65
2022/05/27 10:32:34;;;;;;;4.00;1.55;;;;;;;15.68;42.28;99334.97;5104587;28;20020;-65
2022/05/27 10:35:05;;;;;;;5.72;1.83;;;;;;;15.43;43.43;99359.66;5104631;28;20031;-66
2022/05/27 10:37:49;;;;;;;4.32;1.23;;;;;;;15.39;43.74;99345.00;5104602;28;20016;-66
2022/05/27 10:40:35;;;;;;;6.10;1.67;;;;;;;15.19;43.71;99358.06;5104696;28;20020;-66
2022/05/27 10:43:21;;;;;;;4.85;1.13;;;;;;;15.13;44.72;99354.91;5086113;28;20093;-65
2022/05/27 10:45:52;;;;;;;5.10;1.30;;;;;;;15.13;43.99;99350.50;5104643;28;20529;-66
2022/05/27 10:48:59;;;;;;;6.45;1.63;;;;;;;15.38;44.49;99352.03;5104007;28;20038;-66
2022/05/27 10:51:30;;;;;;;5.43;1.15;;;;;;;16.41;43.47;99351.59;5103914;28;20052;-66
2022/05/27 10:54:15;;;;;;;8.55;1.40;;;;;;;16.61;42.37;99332.28;5103418;28;20238;-67
2022/05/27 11:03:12;;;;;;;5.15;1.20;;;;;;;16.44;42.20;99343.59;5103111;28;20126;-66
2022/05/27 11:06:15;;;;;;;4.63;1.40;;;;;;;16.27;43.03;99344.44;5103267;28;20384;-66
2022/05/27 11:09:02;;;;;;;6.45;1.77;;;;;;;16.40;43.27;99337.69;5103077;28;20325;-66
2022/05/27 11:11:33;;;;;;;6.97;1.67;;;;;;;16.37;43.20;99342.22;5103111;28;20077;-65
2022/05/27 11:17:15;;;;;;;4.97;1.35;;;;;;;15.55;43.12;99348.63;5103056;28;20259;-65
2022/05/27 11:20:05;;;;;;;5.63;1.80;;;;;;;15.30;43.91;99347.16;5102830;28;20020;-65
2022/05/27 11:22:51;;;;;;;6.32;1.40;;;;;;;15.17;44.56;99348.59;5103219;28;20027;-65
2022/05/27 11:25:25;;;;;;;5.80;1.75;;;;;;;15.19;45.01;99336.31;5103182;28;20077;-65
2022/05/27 11:27:50;;;;;;;3.75;1.25;;;;;;;15.14;44.16;99343.53;5103003;28;20024;-65
2022/05/27 11:30:37;;;;;;;9.93;2.20;;;;;;;15.04;45.04;99332.63;5102833;28;20028;-65
2022/05/27 11:33:37;;;;;;;11.50;1.40;;;;;;;15.01;45.20;99331.00;5102672;28;20020;-65
2022/05/27 11:36:44;;;;;;;4.53;1.08;;;;;;;14.98;44.92;99329.34;5097044;28;20082;-65
2022/05/27 11:39:37;;;;;;;9.85;1.92;;;;;;;14.85;46.03;99326.47;5102892;28;20020;-65
2022/05/27 11:42:20;;;;;;;4.80;1.17;;;;;;;14.75;46.41;99336.41;5102925;28;20024;-64
2022/05/27 11:45:11;;;;;;;8.25;1.73;;;;;;;14.45;47.40;99330.72;5102897;28;20075;-65
2022/05/27 11:47:43;;;;;;;8.38;2.08;;;;;;;14.43;47.91;99340.38;5102494;28;20522;-64
2022/05/27 11:50:33;;;;;;;5.15;1.30;;;;;;;14.32;47.15;99327.78;5102491;28;20542;-64
2022/05/27 11:53:36;;;;;;;9.63;1.90;;;;;;;14.22;48.54;99338.59;5102528;28;20024;-66
2022/05/27 11:56:13;;;;;;;6.95;1.60;;;;;;;14.48;49.21;99333.22;5102648;28;20016;-64
2022/05/27 11:58:43;;;;;;;3.67;1.50;;;;;;;14.79;47.21;99333.69;5102659;28;20028;-65
2022/05/27 12:01:35;;;;;;;8.30;1.77;;;;;;;14.77;46.73;99338.97;5102455;28;20515;-65
2022/05/27 12:04:05;;;;;;;6.38;2.00;;;;;;;14.87;46.91;99321.16;5102133;28;20028;-65
2022/05/27 12:06:38;;;;;;;6.00;1.30;;;;;;;14.81;46.84;99332.72;5102592;28;20063;-65
2022/05/27 12:09:12;;;;;;;11.57;2.42;;;;;;;14.77;47.90;99327.66;5102532;28;20027;-64
2022/05/27 12:11:53;;;;;;;14.23;2.78;;;;;;;14.85;47.74;99323.84;5102476;28;20031;-64
2022/05/27 12:14:29;;;;;;;6.47;1.48;;;;;;;14.96;47.29;99327.72;5102217;28;20030;-64
2022/05/27 12:16:58;;;;;;;5.03;1.35;;;;;;;15.04;46.13;99333.47;5102120;28;20096;-64
2022/05/27 12:19:29;;;;;;;7.15;1.35;;;;;;;15.04;46.05;99319.56;5102446;28;20027;-65
2022/05/27 12:22:20;;;;;;;5.10;1.50;;;;;;;15.02;45.76;99327.47;5102433;28;20031;-64
2022/05/27 12:24:51;;;;;;;8.95;1.50;;;;;;;14.97;46.59;99327.66;5102605;28;20020;-65
2022/05/27 12:27:19;;;;;;;6.78;1.42;;;;;;;15.00;44.75;99311.00;5102356;28;20111;-64
2022/05/27 12:29:48;;;;;;;5.68;1.15;;;;;;;14.96;45.93;99322.50;5102409;28;20020;-64